Time;durP1;ratioP1;P1;durP2;ratioP2;P2;SDS_P1;SDS_P2;PMS_P1;PMS_P2;Temp;Humidity;BMP_temperature;BMP_pressure;BME280_temperature;BME280_humidity;BME280_pressure;Samples;Min_cycle;Max_cycle;Signal;HPM_P1;HPM_P2
2023/03/07 04:58:02;;;;;;;43.17;26.05;;;;;;;5.80;80.57;99513.75;5638251;31;75787;-54
2023/03/07 05:01:05;;;;;;;44.75;26.58;;;;;;;5.82;88.52;99502.81;5623419;31;33377;-54
2023/03/07 05:04:07;;;;;;;40.40;26.30;;;;;;;5.97;74.36;99512.69;5623248;31;34233;-55
2023/03/07 05:07:09;;;;;;;48.72;27.55;;;;;;;5.89;75.36;99512.13;5623522;31;33190;-54
2023/03/07 05:10:12;;;;;;;40.72;25.95;;;;;;;5.95;82.41;99507.59;5623271;31;34533;-55
2023/03/07 05:13:14;;;;;;;41.33;26.77;;;;;;;5.87;82.36;99505.50;5623253;31;33584;-55
2023/03/07 05:16:17;;;;;;;38.65;25.73;;;;;;;5.77;77.76;99510.84;5610099;31;33392;-55
2023/03/07 05:19:20;;;;;;;41.72;27.75;;;;;;;5.88;91.71;99504.41;5603276;31;33297;-55
2023/03/07 05:22:23;;;;;;;39.85;25.95;;;;;;;5.97;75.51;99508.16;5603234;31;33221;-55
2023/03/07 05:25:25;;;;;;;40.35;26.48;;;;;;;6.04;72.86;99505.19;5602939;31;34241;-55
2023/03/07 05:28:28;;;;;;;41.95;27.67;;;;;;;6.07;73.34;99516.09;5603060;31;33590;-55
2023/03/07 05:31:30;;;;;;;39.42;26.10;;;;;;;6.07;82.50;99510.78;5603204;31;33596;-55
2023/03/07 05:34:33;;;;;;;40.83;28.00;;;;;;;6.12;72.92;99513.44;5603349;31;34464;-55
2023/03/07 05:37:36;;;;;;;43.87;26.90;;;;;;;6.03;79.14;99514.25;5603427;31;33600;-55
2023/03/07 05:40:39;;;;;;;37.75;25.67;;;;;;;5.89;85.01;99520.13;5603079;31;33440;-55
2023/03/07 05:43:43;;;;;;;43.92;28.60;;;;;;;6.09;91.08;99524.62;5603295;31;33567;-55
2023/03/07 05:46:46;;;;;;;42.40;28.17;;;;;;;6.02;79.33;99518.75;5602956;31;34563;-55
2023/03/07 05:49:48;;;;;;;39.33;27.35;;;;;;;6.01;73.47;99524.38;5603357;31;33815;-55
2023/03/07 05:52:51;;;;;;;49.00;29.05;;;;;;;6.37;100.00;99527.69;5603012;31;34310;-55
2023/03/07 05:55:54;;;;;;;39.58;27.92;;;;;;;6.23;77.54;99526.69;5607676;31;34395;-55
2023/03/07 05:58:57;;;;;;;40.17;26.23;;;;;;;6.08;75.62;99523.00;5609448;31;33430;-55
2023/03/07 06:02:00;;;;;;;45.22;29.30;;;;;;;5.93;82.02;99530.22;5607294;31;34130;-55
2023/03/07 06:05:02;;;;;;;43.05;28.05;;;;;;;6.16;86.08;99528.81;5621983;31;33416;-55
2023/03/07 06:08:05;;;;;;;46.15;29.37;;;;;;;6.03;86.45;99527.56;5615077;31;33592;-54
2023/03/07 06:11:08;;;;;;;45.65;28.02;;;;;;;5.98;79.66;99533.69;5609410;31;33478;-55
2023/03/07 06:14:11;;;;;;;45.83;29.23;;;;;;;6.17;85.79;99533.91;5608660;31;33404;-55
2023/03/07 06:17:14;;;;;;;43.80;28.70;;;;;;;6.05;72.68;99533.38;5608250;31;33407;-56
2023/03/07 06:20:19;;;;;;;46.97;29.90;;;;;;;6.11;80.39;99535.75;5608689;31;33589;-55
2023/03/07 06:23:22;;;;;;;45.05;30.42;;;;;;;6.02;72.49;99549.88;5608344;31;33221;-55
2023/03/07 06:26:24;;;;;;;45.22;30.75;;;;;;;6.02;73.02;99553.34;5609229;31;33310;-55
2023/03/07 06:29:27;;;;;;;40.12;27.52;;;;;;;6.02;81.58;99556.00;5608413;31;34449;-55
2023/03/07 06:32:30;;;;;;;44.15;29.20;;;;;;;5.99;81.12;99561.06;5609093;31;33900;-55
2023/03/07 06:35:36;;;;;;;46.15;29.33;;;;;;;6.08;76.59;99551.47;5609093;31;33597;-56
2023/03/07 06:38:39;;;;;;;43.00;29.17;;;;;;;6.19;83.95;99552.25;5607395;31;33588;-55
2023/03/07 06:41:42;;;;;;;41.92;28.75;;;;;;;6.16;72.89;99552.78;5607960;31;33722;-55
2023/03/07 06:44:44;;;;;;;46.15;30.00;;;;;;;6.21;76.28;99558.09;5602572;31;34304;-55
2023/03/07 06:47:47;;;;;;;46.75;28.87;;;;;;;6.53;83.44;99560.38;5602284;31;33508;-55
2023/03/07 06:50:50;;;;;;;43.80;28.90;;;;;;;6.44;74.20;99568.13;5589590;31;34320;-55
2023/03/07 06:53:52;;;;;;;42.45;28.75;;;;;;;6.43;71.41;99566.53;5588432;31;33409;-55
2023/03/07 06:56:55;;;;;;;44.63;28.75;;;;;;;6.53;70.75;99566.50;5588413;31;33524;-55
2023/03/07 06:59:57;;;;;;;47.53;30.40;;;;;;;6.62;73.04;99560.59;5597682;31;33705;-55
2023/03/07 07:03:03;;;;;;;45.90;28.95;;;;;;;6.59;71.20;99569.94;5608042;31;32938;-55
2023/03/07 07:06:06;;;;;;;49.30;29.80;;;;;;;6.61;71.70;99573.13;5607967;31;33602;-55
2023/03/07 07:09:11;;;;;;;48.95;31.33;;;;;;;6.58;71.51;99563.81;5594648;31;33933;-56
2023/03/07 07:12:14;;;;;;;47.60;29.53;;;;;;;6.63;71.15;99570.19;5602048;31;34537;-55
2023/03/07 07:15:16;;;;;;;56.70;31.42;;;;;;;6.52;72.61;99570.25;5602995;31;33812;-55
2023/03/07 07:18:19;;;;;;;47.88;29.15;;;;;;;6.71;71.79;99567.75;5596768;31;33597;-56
2023/03/07 07:21:21;;;;;;;43.63;29.90;;;;;;;6.74;75.83;99566.41;5597920;31;34313;-55
2023/03/07 07:24:23;;;;;;;45.85;30.65;;;;;;;6.98;70.99;99563.84;5592120;31;33761;-55
2023/03/07 07:27:27;;;;;;;46.42;31.65;;;;;;;7.00;70.31;99569.72;5594641;31;34867;-55
2023/03/07 07:30:30;;;;;;;57.35;32.47;;;;;;;6.97;70.19;99568.41;5596558;31;32962;-55
2023/03/07 07:33:32;;;;;;;43.92;29.02;;;;;;;7.07;70.17;99575.53;5593292;31;35051;-55
2023/03/07 07:36:35;;;;;;;45.03;29.58;;;;;;;7.21;68.24;99581.03;5594519;31;32066;-55
2023/03/07 07:39:42;;;;;;;43.65;27.85;;;;;;;7.17;70.24;99580.00;5588242;31;34366;-55
2023/03/07 07:42:54;;;;;;;39.15;25.15;;;;;;;7.23;68.80;99578.91;5594078;31;33218;-56
2023/03/07 07:46:03;;;;;;;35.97;23.60;;;;;;;7.40;67.19;99584.63;5594279;31;33688;-55
2023/03/07 07:49:06;;;;;;;;;;;;;;;7.43;66.25;99577.97;5593971;31;33391;-55
2023/03/07 07:52:08;;;;;;;32.42;22.08;;;;;;;7.52;67.63;99578.97;5595311;31;34002;-55
2023/03/07 07:55:13;;;;;;;31.73;22.75;;;;;;;7.46;64.62;99580.06;5603495;31;32028;-55
2023/03/07 07:58:16;;;;;;;37.47;23.60;;;;;;;7.52;63.93;99585.09;5558127;32;34495;-55
2023/03/07 08:01:21;;;;;;;34.20;23.52;;;;;;;7.69;64.33;99579.34;5552998;32;33139;-55
2023/03/07 08:04:24;;;;;;;35.60;23.52;;;;;;;7.61;63.94;99587.13;5558154;32;34336;-55
2023/03/07 08:07:26;;;;;;;38.97;25.17;;;;;;;7.90;79.57;99576.47;5556653;32;34376;-55
2023/03/07 08:10:29;;;;;;;38.63;24.55;;;;;;;7.94;71.94;99582.84;5554069;31;33633;-56
2023/03/07 08:13:32;;;;;;;41.75;27.02;;;;;;;7.93;84.70;99579.38;5556533;32;33749;-56
2023/03/07 08:16:35;;;;;;;40.17;25.33;;;;;;;8.08;78.65;99580.28;5551092;31;33653;-55
2023/03/07 08:19:37;;;;;;;41.70;27.00;;;;;;;8.10;74.66;99575.47;5548719;32;34624;-56
2023/03/07 08:22:42;;;;;;;39.60;26.65;;;;;;;8.26;79.91;99584.91;5551548;32;33663;-55
2023/03/07 08:25:44;;;;;;;44.17;28.35;;;;;;;8.34;79.24;99588.84;5558766;32;33728;-55
2023/03/07 08:28:47;;;;;;;36.65;26.73;;;;;;;8.35;67.54;99582.44;5557301;32;34327;-55
2023/03/07 08:31:50;;;;;;;49.75;28.35;;;;;;;8.35;62.75;99579.75;5557566;32;33752;-55
2023/03/07 08:34:53;;;;;;;44.70;27.13;;;;;;;8.31;63.62;99579.53;5556953;31;33109;-55
2023/03/07 08:37:58;;;;;;;48.87;26.83;;;;;;;8.31;64.20;99576.03;5558366;32;34368;-55
2023/03/07 08:41:03;;;;;;;44.83;25.13;;;;;;;8.32;61.79;99585.66;5554791;32;34292;-55
2023/03/07 08:44:05;;;;;;;43.03;25.48;;;;;;;8.34;60.18;99588.84;5553412;32;33868;-55
2023/03/07 08:47:10;;;;;;;45.47;26.08;;;;;;;8.31;63.08;99586.72;5561278;31;33634;-55
2023/03/07 08:50:12;;;;;;;36.17;24.10;;;;;;;8.51;60.00;99594.56;5560314;32;33723;-55
2023/03/07 08:53:16;;;;;;;38.70;23.15;;;;;;;8.40;61.45;99593.06;5566300;32;34331;-55
2023/03/07 08:56:19;;;;;;;33.15;23.20;;;;;;;8.65;83.44;99587.44;5574748;31;34403;-55
2023/03/07 08:59:21;;;;;;;35.75;22.75;;;;;;;8.84;60.44;99582.13;5593880;31;33640;-55
2023/03/07 09:02:24;;;;;;;34.05;21.58;;;;;;;8.81;57.73;99595.25;5599368;31;34287;-55
2023/03/07 09:05:27;;;;;;;28.45;19.17;;;;;;;8.84;57.22;99586.66;5595397;31;31884;-55
2023/03/07 09:08:30;;;;;;;24.23;16.25;;;;;;;8.87;65.63;99588.75;5593591;31;33654;-55
2023/03/07 09:11:32;;;;;;;27.37;16.98;;;;;;;9.30;78.79;99588.69;5592624;31;33645;-55
2023/03/07 09:14:34;;;;;;;25.62;16.95;;;;;;;9.47;60.62;99602.34;5595100;31;34261;-55
2023/03/07 09:17:37;;;;;;;27.48;17.20;;;;;;;9.43;53.13;99593.28;5592255;31;34401;-55
2023/03/07 09:20:39;;;;;;;34.28;15.40;;;;;;;9.45;56.95;99596.47;5596062;31;33661;-55
2023/03/07 09:23:43;;;;;;;23.95;15.38;;;;;;;9.29;52.10;99589.78;5591010;31;33606;-55
2023/03/07 09:26:45;;;;;;;23.12;14.65;;;;;;;9.21;52.86;99591.22;5593691;31;33716;-55
2023/03/07 09:29:48;;;;;;;26.33;15.35;;;;;;;9.05;50.58;99592.53;5591088;31;33719;-55
2023/03/07 09:32:50;;;;;;;25.45;15.55;;;;;;;9.00;52.73;99587.25;5593562;31;33092;-55
2023/03/07 09:35:53;;;;;;;20.88;13.77;;;;;;;8.97;51.25;99583.25;5592365;31;34065;-55
2023/03/07 09:38:55;;;;;;;23.75;15.10;;;;;;;9.03;50.73;99587.47;5592210;31;33754;-55
2023/03/07 09:42:15;;;;;;;26.35;15.77;;;;;;;9.27;70.33;99583.91;5594044;31;33580;-55
2023/03/07 09:45:36;;;;;;;22.25;15.10;;;;;;;9.50;60.55;99587.56;5594644;31;33574;-55
2023/03/07 09:49:14;;;;;;;21.12;14.85;;;;;;;9.19;49.03;99580.00;5597029;31;31888;-56
2023/03/07 09:52:20;;;;;;;21.87;13.80;;;;;;;9.23;52.36;99581.03;5569544;31;34279;-55
2023/03/07 09:55:24;;;;;;;22.90;15.18;;;;;;;9.29;50.77;99590.56;5595199;31;34276;-55
2023/03/07 09:58:26;;;;;;;24.70;14.40;;;;;;;9.33;51.85;99590.78;5596674;31;33712;-55
2023/03/07 10:01:33;;;;;;;22.00;14.02;;;;;;;9.53;51.98;99581.63;5599038;31;34403;-55
2023/03/07 10:05:05;;;;;;;19.27;13.50;;;;;;;9.89;66.23;99568.44;5594208;31;34324;-55
2023/03/07 10:08:28;;;;;;;20.12;14.02;;;;;;;10.21;66.08;99575.63;5588604;31;34108;-55
2023/03/07 10:11:49;;;;;;;19.60;13.07;;;;;;;10.06;61.28;99571.34;5576230;31;33631;-56
2023/03/07 10:15:21;;;;;;;19.45;13.18;;;;;;;10.21;68.95;99569.47;5593558;31;33686;-55
2023/03/07 10:18:49;;;;;;;18.23;13.00;;;;;;;10.45;49.95;99578.12;5592569;31;33464;-55
2023/03/07 10:22:13;;;;;;;20.40;13.50;;;;;;;10.65;70.34;99582.28;5596054;31;33719;-55
2023/03/07 10:25:39;;;;;;;24.58;12.15;;;;;;;10.42;47.59;99576.03;5594582;31;33236;-55
2023/03/07 10:28:45;;;;;;;23.87;11.18;;;;;;;10.34;48.97;99566.81;5600111;31;33696;-55
2023/03/07 10:31:52;;;;;;;17.65;10.85;;;;;;;10.47;49.45;99572.50;5596567;31;33762;-55
2023/03/07 10:35:10;;;;;;;16.52;10.10;;;;;;;10.18;47.19;99568.19;5596614;31;33637;-55
2023/03/07 10:38:26;;;;;;;17.15;10.10;;;;;;;10.34;64.03;99579.44;5595853;31;33623;-55
2023/03/07 10:41:29;;;;;;;18.17;10.18;;;;;;;10.44;52.74;99573.09;5591745;31;33752;-55
2023/03/07 10:44:33;;;;;;;17.48;10.40;;;;;;;10.40;44.26;99567.53;5595511;31;34428;-55
2023/03/07 10:47:35;;;;;;;16.40;10.18;;;;;;;10.63;72.90;99559.53;5595796;31;34433;-55
2023/03/07 10:50:46;;;;;;;16.20;9.93;;;;;;;10.79;51.31;99555.44;5591419;31;34440;-55
2023/03/07 10:53:49;;;;;;;15.35;10.10;;;;;;;10.74;52.79;99547.53;5598065;31;34312;-55
2023/03/07 10:57:08;;;;;;;17.33;11.48;;;;;;;10.69;45.97;99548.41;5592413;31;32379;-56
2023/03/07 11:00:16;;;;;;;16.30;11.30;;;;;;;10.90;47.14;99548.00;5597166;31;33901;-55
2023/03/07 11:03:33;;;;;;;15.32;10.60;;;;;;;10.72;45.98;99544.34;5600102;31;34408;-55
2023/03/07 11:06:55;;;;;;;18.02;12.82;;;;;;;10.54;45.45;99533.47;5596155;31;34320;-55
2023/03/07 11:10:00;;;;;;;18.02;12.13;;;;;;;10.47;46.73;99534.97;5595081;31;33129;-55
2023/03/07 11:13:17;;;;;;;18.25;12.23;;;;;;;10.44;63.62;99541.72;5592158;31;32324;-55
2023/03/07 11:16:22;;;;;;;18.60;13.13;;;;;;;10.84;68.63;99531.22;5594831;31;33713;-55
2023/03/07 11:19:42;;;;;;;18.70;13.35;;;;;;;11.07;65.57;99520.53;5594670;31;33677;-55
2023/03/07 11:22:48;;;;;;;22.23;14.68;;;;;;;11.35;51.70;99518.50;5594670;31;34392;-55
2023/03/07 11:25:52;;;;;;;22.67;15.80;;;;;;;11.09;57.20;99511.06;5597580;31;34414;-55
2023/03/07 11:29:07;;;;;;;20.88;15.05;;;;;;;11.36;71.29;99510.16;5595810;31;33746;-55
2023/03/07 11:32:23;;;;;;;24.45;15.95;;;;;;;11.28;66.43;99502.84;5592244;31;33722;-55
2023/03/07 11:35:41;;;;;;;23.10;15.18;;;;;;;11.17;56.70;99494.25;5597156;31;33805;-55
2023/03/07 11:38:59;;;;;;;26.27;14.98;;;;;;;10.83;57.93;99484.06;5598507;31;33630;-55
2023/03/07 11:42:13;;;;;;;23.87;16.27;;;;;;;10.73;58.45;99485.09;5595389;31;33719;-55
2023/03/07 11:45:28;;;;;;;28.08;16.55;;;;;;;10.54;58.87;99485.22;5594588;31;33798;-55
2023/03/07 11:48:34;;;;;;;24.45;15.20;;;;;;;10.48;56.44;99488.31;5600350;31;33594;-55
2023/03/07 11:51:48;;;;;;;23.95;15.65;;;;;;;10.57;73.99;99489.19;5591068;31;34612;-55
2023/03/07 11:55:15;;;;;;;22.25;14.15;;;;;;;10.46;57.83;99482.47;5592080;31;34331;-55
2023/03/07 11:58:47;;;;;;;20.55;13.98;;;;;;;10.25;59.87;99482.06;5592994;31;34391;-55
2023/03/07 12:01:57;;;;;;;21.33;14.05;;;;;;;10.01;72.66;99480.41;5549250;31;34248;-55
2023/03/07 12:05:24;;;;;;;19.75;12.45;;;;;;;10.07;57.12;99481.91;5587642;31;34273;-55
2023/03/07 12:09:08;;;;;;;20.27;12.68;;;;;;;10.08;60.13;99474.66;5592074;31;33633;-56
2023/03/07 12:12:44;;;;;;;22.10;13.73;;;;;;;9.95;59.06;99480.81;5587963;31;33707;-55
2023/03/07 12:16:26;;;;;;;19.55;13.32;;;;;;;10.00;57.26;99472.66;5595814;31;33751;-56
2023/03/07 12:19:58;;;;;;;22.62;13.02;;;;;;;10.03;56.66;99464.03;5593790;31;33773;-55
2023/03/07 12:23:14;;;;;;;19.87;12.40;;;;;;;10.00;54.56;99460.09;5593697;31;34372;-55
2023/03/07 12:26:41;;;;;;;21.83;12.37;;;;;;;10.28;75.24;99455.50;5590221;31;34837;-55
2023/03/07 12:29:50;;;;;;;18.87;11.18;;;;;;;10.11;54.95;99452.63;5589271;31;33324;-55
2023/03/07 12:32:53;;;;;;;17.20;11.25;;;;;;;10.08;67.66;99466.63;5589801;31;33666;-55
2023/03/07 12:36:05;;;;;;;15.38;10.13;;;;;;;10.09;54.50;99460.16;5587668;31;33643;-55
2023/03/07 12:39:29;;;;;;;18.33;11.35;;;;;;;9.88;52.19;99457.09;5593887;31;33132;-55
2023/03/07 12:42:53;;;;;;;21.20;10.75;;;;;;;9.74;51.54;99464.34;5591251;31;32280;-55
2023/03/07 12:46:16;;;;;;;14.23;9.73;;;;;;;9.61;53.68;99452.53;5592955;31;34317;-55
2023/03/07 12:49:22;;;;;;;15.75;9.52;;;;;;;9.83;74.34;99457.19;5596480;31;33910;-55
2023/03/07 12:52:36;;;;;;;14.18;9.40;;;;;;;9.84;53.59;99443.53;5589335;31;34070;-55
2023/03/07 12:55:43;;;;;;;14.45;9.73;;;;;;;10.02;65.71;99449.84;5594184;31;34377;-56
2023/03/07 12:58:51;;;;;;;15.77;9.73;;;;;;;9.95;58.40;99449.47;5599852;31;33038;-55
2023/03/07 13:02:03;;;;;;;15.73;10.23;;;;;;;9.99;65.49;99457.69;5590112;31;36012;-55
2023/03/07 13:05:05;;;;;;;19.70;10.75;;;;;;;9.82;55.71;99450.25;5592594;31;33394;-55
2023/03/07 13:08:18;;;;;;;15.98;10.50;;;;;;;9.68;55.74;99457.50;5593553;31;33677;-55
2023/03/07 13:11:25;;;;;;;15.75;10.38;;;;;;;9.65;57.78;99448.97;5602830;31;33646;-55
2023/03/07 13:14:44;;;;;;;16.70;10.55;;;;;;;9.59;56.81;99447.47;5606465;31;33643;-55
2023/03/07 13:17:46;;;;;;;19.45;12.10;;;;;;;9.52;57.38;99459.66;5607656;31;33630;-56
2023/03/07 13:21:07;;;;;;;15.93;10.80;;;;;;;9.68;55.68;99470.88;5600165;31;33057;-55
2023/03/07 13:24:28;;;;;;;16.75;12.82;;;;;;;9.56;55.49;99471.34;5603158;31;34402;-55
2023/03/07 13:27:40;;;;;;;16.90;11.90;;;;;;;9.79;77.26;99458.88;5600984;31;33259;-55
2023/03/07 13:31:27;;;;;;;17.67;12.02;;;;;;;9.76;62.21;99464.81;5600035;31;33706;-55
2023/03/07 13:34:50;;;;;;;18.05;11.07;;;;;;;9.83;57.99;99466.03;5598059;31;33570;-55
2023/03/07 13:37:55;;;;;;;17.35;11.25;;;;;;;9.80;56.87;99463.94;5609669;31;33720;-55
2023/03/07 13:41:00;;;;;;;15.30;10.43;;;;;;;9.75;59.87;99460.56;5607368;31;33668;-55
2023/03/07 13:44:02;;;;;;;17.15;11.15;;;;;;;9.56;58.90;99455.28;5606004;31;34380;-55
2023/03/07 13:47:42;;;;;;;16.95;11.32;;;;;;;9.60;56.66;99458.97;5592224;31;33269;-55
2023/03/07 13:50:44;;;;;;;17.73;11.57;;;;;;;9.60;58.16;99462.44;5604175;31;33610;-55
2023/03/07 13:53:49;;;;;;;19.35;11.98;;;;;;;9.50;58.29;99457.25;5604766;31;33799;-55
2023/03/07 13:56:52;;;;;;;17.90;11.45;;;;;;;9.34;60.08;99454.09;5609134;31;34458;-55
2023/03/07 13:59:55;;;;;;;18.33;12.00;;;;;;;9.37;56.30;99450.81;5609165;31;33711;-55
2023/03/07 14:02:57;;;;;;;18.55;13.23;;;;;;;9.36;56.66;99446.53;5609187;31;33983;-55
2023/03/07 14:06:08;;;;;;;20.42;13.35;;;;;;;9.45;56.38;99427.16;5599364;31;33697;-55
2023/03/07 14:09:14;;;;;;;20.08;12.30;;;;;;;9.59;71.51;99428.72;5609409;31;33783;-55
2023/03/07 14:12:28;;;;;;;16.62;11.07;;;;;;;9.81;59.98;99420.03;5609272;31;33686;-55
2023/03/07 14:15:50;;;;;;;21.55;13.38;;;;;;;9.62;64.26;99409.41;5608566;31;33261;-55
2023/03/07 14:19:05;;;;;;;18.87;11.80;;;;;;;9.91;63.94;99404.84;5609019;31;34331;-55
2023/03/07 14:22:21;;;;;;;18.60;12.60;;;;;;;9.75;57.68;99402.47;5608982;31;33868;-55
2023/03/07 14:25:25;;;;;;;;;;;;;;;9.54;59.71;99401.31;5608771;31;33641;-55
2023/03/07 14:28:27;;;;;;;21.35;14.93;;;;;;;9.57;67.66;99398.00;5608695;31;34117;-55
2023/03/07 14:31:37;;;;;;;19.37;12.05;;;;;;;9.84;62.95;99391.87;5608980;31;34361;-55
2023/03/07 14:34:47;;;;;;;21.95;16.60;;;;;;;9.60;58.37;99402.78;5608255;31;33699;-55
2023/03/07 14:37:50;;;;;;;23.73;15.00;;;;;;;9.89;72.90;99394.44;5609262;31;34460;-55
2023/03/07 14:41:01;;;;;;;20.02;12.55;;;;;;;9.88;61.08;99388.28;5598650;31;33858;-55
2023/03/07 14:44:25;;;;;;;20.45;12.90;;;;;;;9.55;57.85;99392.19;5596547;31;34271;-55
2023/03/07 14:48:05;;;;;;;18.80;13.18;;;;;;;9.55;73.54;99389.50;5589945;31;33796;-55
2023/03/07 14:51:18;;;;;;;23.52;14.00;;;;;;;9.67;60.80;99397.84;5608511;31;34467;-55
2023/03/07 14:54:28;;;;;;;20.27;13.80;;;;;;;9.67;62.84;99384.47;5608960;31;34296;-55
2023/03/07 14:57:34;;;;;;;19.10;13.80;;;;;;;9.61;63.83;99391.00;5592013;31;33644;-55
2023/03/07 15:00:36;;;;;;;24.67;14.48;;;;;;;9.31;61.37;99385.13;5608949;31;33614;-55
2023/03/07 15:03:57;;;;;;;23.00;14.48;;;;;;;9.35;66.84;99394.16;5609291;31;34542;-55
2023/03/07 15:07:04;;;;;;;23.60;14.87;;;;;;;9.38;63.43;99390.87;5608861;31;33940;-55
2023/03/07 15:10:19;;;;;;;24.83;14.95;;;;;;;9.39;65.03;99397.81;5608957;31;33857;-55
2023/03/07 15:13:44;;;;;;;26.17;15.90;;;;;;;9.33;64.62;99390.97;5608733;31;33652;-55
2023/03/07 15:16:48;;;;;;;21.87;15.23;;;;;;;9.27;62.36;99394.03;5608283;31;34294;-55
2023/03/07 15:19:54;;;;;;;24.90;15.73;;;;;;;9.22;64.68;99381.56;5608600;31;33933;-55
2023/03/07 15:23:21;;;;;;;19.02;14.25;;;;;;;9.61;80.65;99388.31;5608289;31;33328;-55
2023/03/07 15:26:25;;;;;;;21.87;13.77;;;;;;;9.46;64.05;99380.56;5599137;31;33714;-55
2023/03/07 15:29:30;;;;;;;20.23;13.25;;;;;;;9.30;64.84;99388.09;5608790;31;33389;-55
2023/03/07 15:32:39;;;;;;;20.20;13.60;;;;;;;9.10;69.17;99384.69;5608176;31;34358;-55
2023/03/07 15:35:42;;;;;;;19.35;13.02;;;;;;;9.13;67.45;99377.97;5608372;31;33753;-55
2023/03/07 15:38:49;;;;;;;21.52;12.70;;;;;;;9.02;68.42;99373.91;5588537;31;33473;-55
2023/03/07 15:42:06;;;;;;;19.52;12.77;;;;;;;9.02;70.61;99372.00;5587817;31;33745;-55
2023/03/07 15:45:29;;;;;;;20.52;13.55;;;;;;;9.11;88.21;99367.56;5604035;31;34379;-55
2023/03/07 15:48:40;;;;;;;22.42;14.75;;;;;;;9.02;67.20;99360.53;5608006;31;33709;-55
2023/03/07 15:51:44;;;;;;;18.67;13.80;;;;;;;9.06;70.90;99353.50;5608215;31;33808;-55
2023/03/07 15:54:50;;;;;;;17.52;12.02;;;;;;;9.06;72.62;99343.59;5607721;31;34422;-55
2023/03/07 15:58:03;;;;;;;18.42;12.90;;;;;;;9.09;68.76;99344.87;5603822;31;33663;-55
2023/03/07 16:01:26;;;;;;;17.98;12.48;;;;;;;9.20;83.98;99334.78;5607543;31;33846;-55
2023/03/07 16:04:34;;;;;;;21.25;15.18;;;;;;;9.22;67.86;99332.63;5608075;31;33406;-55
2023/03/07 16:07:36;;;;;;;16.77;13.38;;;;;;;9.32;86.73;99327.88;5607881;31;33681;-56
2023/03/07 16:10:48;;;;;;;18.95;11.93;;;;;;;9.26;66.85;99325.59;5607564;31;32737;-55
2023/03/07 16:13:50;;;;;;;19.87;12.25;;;;;;;9.22;67.12;99327.28;5608428;31;34347;-55
2023/03/07 16:16:55;;;;;;;18.83;11.63;;;;;;;9.30;67.21;99329.25;5602501;31;33614;-55
2023/03/07 16:19:58;;;;;;;18.08;11.48;;;;;;;9.28;67.60;99326.88;5600959;31;34268;-56
2023/03/07 16:23:00;;;;;;;22.27;14.60;;;;;;;9.17;67.29;99330.81;5608320;31;34403;-55
2023/03/07 16:26:04;;;;;;;20.52;14.50;;;;;;;9.17;73.42;99310.25;5607305;31;33594;-55
2023/03/07 16:29:13;;;;;;;20.10;13.65;;;;;;;9.13;77.53;99305.78;5607087;31;33766;-55
2023/03/07 16:32:19;;;;;;;19.15;12.60;;;;;;;9.03;70.07;99306.75;5599353;31;34270;-55
2023/03/07 16:35:24;;;;;;;21.10;13.10;;;;;;;9.14;71.63;99302.81;5605721;31;33737;-56
2023/03/07 16:38:26;;;;;;;17.73;11.73;;;;;;;9.12;66.79;99306.87;5606489;31;33757;-55
2023/03/07 16:41:28;;;;;;;20.10;11.77;;;;;;;9.15;65.89;99306.28;5605497;31;33656;-55
